Time;durP1;ratioP1;P1;durP2;ratioP2;P2;SDS_P1;SDS_P2;PMS_P1;PMS_P2;Temp;Humidity;BMP_temperature;BMP_pressure;BME280_temperature;BME280_humidity;BME280_pressure;Samples;Min_cycle;Max_cycle;Signal;HPM_P1;HPM_P2
2024/03/13 00:00:18;;;;;;;;;11.00;11.00;;;;;;;;5094703;28;9319;-84
2024/03/13 00:02:45;;;;;;;;;11.00;11.00;;;;;;;;5097882;28;9909;-84
2024/03/13 00:05:13;;;;;;;;;9.33;9.33;;;;;;;;5112280;28;9167;-83
2024/03/13 00:07:40;;;;;;;;;11.00;11.00;;;;;;;;5116707;28;9182;-84
2024/03/13 00:10:10;;;;;;;;;9.00;9.00;;;;;;;;5110367;28;9206;-84
2024/03/13 00:12:37;;;;;;;;;10.67;8.00;;;;;;;;5092316;28;9393;-83
2024/03/13 00:15:05;;;;;;;;;9.00;8.00;;;;;;;;5092367;28;9236;-84
2024/03/13 00:17:34;;;;;;;;;7.67;7.67;;;;;;;;5091705;28;9081;-83
2024/03/13 00:20:03;;;;;;;;;10.00;10.00;;;;;;;;5091515;28;9096;-83
2024/03/13 00:22:30;;;;;;;;;13.33;8.67;;;;;;;;5089638;28;9266;-83
2024/03/13 00:24:59;;;;;;;;;8.33;8.33;;;;;;;;5091163;28;9156;-83
2024/03/13 00:27:27;;;;;;;;;8.33;8.33;;;;;;;;5090879;28;9267;-83
2024/03/13 00:29:57;;;;;;;;;8.00;8.00;;;;;;;;5092034;28;9298;-82
2024/03/13 00:32:24;;;;;;;;;10.00;9.00;;;;;;;;5091275;28;9307;-84
2024/03/13 00:34:53;;;;;;;;;9.00;8.00;;;;;;;;5090818;28;9166;-84
2024/03/13 00:37:21;;;;;;;;;9.00;9.00;;;;;;;;5084334;28;9177;-83
2024/03/13 00:39:49;;;;;;;;;8.00;8.00;;;;;;;;5086993;28;9309;-83
2024/03/13 00:42:16;;;;;;;;;10.00;10.00;;;;;;;;5091530;28;9178;-84
2024/03/13 00:44:44;;;;;;;;;7.00;7.00;;;;;;;;5089790;28;9266;-84
2024/03/13 00:47:14;;;;;;;;;9.00;9.00;;;;;;;;5090682;28;9240;-83
2024/03/13 00:49:42;;;;;;;;;9.00;7.00;;;;;;;;5122731;27;9213;-84
2024/03/13 00:52:11;;;;;;;;;8.00;8.00;;;;;;;;5091060;28;9303;-84
2024/03/13 00:54:45;;;;;;;;;8.00;8.00;;;;;;;;5090804;28;9240;-84
2024/03/13 00:57:12;;;;;;;;;8.00;8.00;;;;;;;;5091414;28;9245;-84
2024/03/13 00:59:40;;;;;;;;;7.00;7.00;;;;;;;;5091314;28;9004;-83
2024/03/13 01:02:08;;;;;;;;;7.33;6.00;;;;;;;;5090064;28;9173;-83
2024/03/13 01:04:39;;;;;;;;;5.67;5.67;;;;;;;;5093094;28;9178;-83
2024/03/13 01:07:07;;;;;;;;;6.00;6.00;;;;;;;;5095753;28;9385;-84
2024/03/13 01:09:38;;;;;;;;;9.67;8.67;;;;;;;;5097402;28;9107;-84
2024/03/13 01:12:06;;;;;;;;;8.33;8.33;;;;;;;;5098663;28;9320;-83
2024/03/13 01:14:34;;;;;;;;;8.00;6.33;;;;;;;;5100149;28;9414;-84
2024/03/13 01:17:02;;;;;;;;;11.00;9.67;;;;;;;;5099504;28;9338;-83
2024/03/13 01:19:34;;;;;;;;;9.00;7.00;;;;;;;;5099045;28;9380;-85
2024/03/13 01:22:05;;;;;;;;;10.00;8.67;;;;;;;;5097600;28;9255;-84
2024/03/13 01:24:33;;;;;;;;;10.50;8.00;;;;;;;;5093079;28;9313;-85
2024/03/13 01:27:02;;;;;;;;;11.75;10.50;;;;;;;;5092505;28;9485;-84
2024/03/13 01:29:29;;;;;;;;;11.50;10.25;;;;;;;;5094481;28;9412;-84
2024/03/13 01:31:57;;;;;;;;;11.00;8.75;;;;;;;;5094560;28;9430;-84
2024/03/13 01:34:24;;;;;;;;;7.67;7.67;;;;;;;;5092171;28;9534;-85
2024/03/13 01:39:36;;;;;;;;;10.67;8.67;;;;;;;;5089728;28;9376;-83
2024/03/13 01:56:23;;;;;;;;;7.67;6.33;;;;;;;;5088786;28;9292;-83
2024/03/13 01:59:02;;;;;;;;;6.33;6.33;;;;;;;;5091355;28;9331;-83
2024/03/13 02:04:15;;;;;;;;;8.00;7.00;;;;;;;;5101515;28;9225;-84
2024/03/13 02:06:42;;;;;;;;;7.67;6.00;;;;;;;;5090878;28;9297;-84
2024/03/13 02:09:10;;;;;;;;;6.33;5.00;;;;;;;;5090234;28;9336;-84
2024/03/13 02:11:40;;;;;;;;;7.33;5.00;;;;;;;;5090522;28;10103;-84
2024/03/13 02:14:09;;;;;;;;;9.00;7.00;;;;;;;;5090707;28;9269;-84
2024/03/13 02:16:36;;;;;;;;;6.67;5.00;;;;;;;;5089820;28;9282;-84
2024/03/13 02:19:04;;;;;;;;;5.67;5.33;;;;;;;;5090108;28;9307;-84
2024/03/13 02:21:32;;;;;;;;;7.67;7.00;;;;;;;;5089383;28;9178;-85
2024/03/13 02:24:00;;;;;;;;;9.33;6.00;;;;;;;;5089799;28;9540;-84
2024/03/13 02:26:29;;;;;;;;;5.00;5.00;;;;;;;;5071342;28;9362;-82
2024/03/13 02:28:59;;;;;;;;;6.00;5.00;;;;;;;;5072669;28;9382;-83
2024/03/13 02:31:26;;;;;;;;;6.00;5.00;;;;;;;;5072304;28;9213;-83
2024/03/13 02:33:55;;;;;;;;;5.00;5.00;;;;;;;;5074373;28;9232;-83
2024/03/13 02:36:23;;;;;;;;;5.33;5.33;;;;;;;;5076860;28;9199;-83
2024/03/13 02:38:50;;;;;;;;;6.00;6.00;;;;;;;;5064717;28;9377;-83
2024/03/13 02:41:20;;;;;;;;;6.00;6.00;;;;;;;;5090443;28;9178;-83
2024/03/13 02:43:48;;;;;;;;;6.00;6.00;;;;;;;;5075383;28;9320;-83
2024/03/13 02:46:15;;;;;;;;;6.33;6.33;;;;;;;;5075562;28;9262;-84
2024/03/13 02:48:43;;;;;;;;;5.00;5.00;;;;;;;;5075207;28;9328;-84
2024/03/13 02:51:11;;;;;;;;;7.00;5.00;;;;;;;;5064607;28;9224;-83
2024/03/13 02:53:39;;;;;;;;;8.33;8.33;;;;;;;;5077044;28;9166;-84
2024/03/13 02:56:08;;;;;;;;;6.00;6.00;;;;;;;;5079580;28;9324;-84
2024/03/13 02:58:36;;;;;;;;;7.00;7.00;;;;;;;;5080997;28;9374;-85
2024/03/13 03:01:04;;;;;;;;;7.33;7.00;;;;;;;;5080551;28;9244;-84
2024/03/13 03:03:31;;;;;;;;;6.00;6.00;;;;;;;;5078395;28;9282;-84
2024/03/13 03:06:01;;;;;;;;;5.33;4.67;;;;;;;;5078693;28;9381;-84
2024/03/13 03:08:29;;;;;;;;;9.33;5.00;;;;;;;;5079804;28;9107;-84
2024/03/13 03:10:56;;;;;;;;;8.00;6.33;;;;;;;;5080791;28;9339;-84
2024/03/13 03:13:24;;;;;;;;;7.67;5.00;;;;;;;;5104410;28;9380;-84
2024/03/13 03:15:51;;;;;;;;;5.33;5.33;;;;;;;;5074475;28;9362;-84
2024/03/13 03:18:19;;;;;;;;;5.67;5.67;;;;;;;;5075855;28;9102;-83
2024/03/13 03:20:46;;;;;;;;;7.33;6.00;;;;;;;;5080288;28;9293;-84
2024/03/13 03:23:14;;;;;;;;;7.00;7.00;;;;;;;;5076709;28;9083;-84
2024/03/13 03:25:41;;;;;;;;;7.00;5.33;;;;;;;;5074617;28;9099;-84
2024/03/13 03:28:13;;;;;;;;;7.67;6.00;;;;;;;;5073830;28;9092;-84
2024/03/13 03:30:42;;;;;;;;;8.00;6.00;;;;;;;;5074887;28;9032;-83
2024/03/13 03:33:12;;;;;;;;;5.67;5.67;;;;;;;;5106637;28;9203;-84
2024/03/13 03:35:40;;;;;;;;;6.00;6.00;;;;;;;;5074825;28;9094;-84
2024/03/13 03:38:07;;;;;;;;;6.00;4.33;;;;;;;;5108189;28;9081;-84
2024/03/13 03:40:35;;;;;;;;;4.00;4.00;;;;;;;;5072292;28;9087;-83
2024/03/13 03:43:04;;;;;;;;;7.67;5.33;;;;;;;;5073031;28;9141;-83
2024/03/13 03:45:32;;;;;;;;;4.00;4.00;;;;;;;;5074393;28;9030;-83
2024/03/13 03:48:00;;;;;;;;;5.33;4.00;;;;;;;;5073876;28;9018;-83
2024/03/13 03:50:27;;;;;;;;;6.00;6.00;;;;;;;;5073952;28;9003;-82
2024/03/13 03:52:55;;;;;;;;;4.00;3.00;;;;;;;;5074154;28;9066;-83
2024/03/13 03:55:22;;;;;;;;;8.00;6.33;;;;;;;;5073613;28;9070;-83
2024/03/13 03:57:50;;;;;;;;;6.67;5.00;;;;;;;;5074185;28;9295;-83
2024/03/13 04:00:18;;;;;;;;;5.00;5.00;;;;;;;;5073055;28;9092;-83
2024/03/13 04:02:45;;;;;;;;;4.33;4.33;;;;;;;;5073880;28;9093;-83
2024/03/13 04:05:13;;;;;;;;;4.00;4.00;;;;;;;;5073804;28;9103;-83
2024/03/13 04:07:43;;;;;;;;;4.67;4.67;;;;;;;;5073472;28;9190;-82
2024/03/13 04:10:10;;;;;;;;;5.00;5.00;;;;;;;;5074437;28;9164;-83
2024/03/13 04:12:38;;;;;;;;;6.00;5.00;;;;;;;;5057335;28;9231;-82
2024/03/13 04:15:06;;;;;;;;;5.00;5.00;;;;;;;;5074104;28;9180;-84
2024/03/13 04:17:35;;;;;;;;;8.00;4.33;;;;;;;;5074161;28;9363;-83
2024/03/13 04:20:03;;;;;;;;;4.33;4.33;;;;;;;;5074590;28;9199;-84
2024/03/13 04:22:31;;;;;;;;;5.67;5.67;;;;;;;;5070979;28;9197;-84
2024/03/13 04:24:59;;;;;;;;;4.67;4.00;;;;;;;;5106610;28;9256;-83
2024/03/13 04:27:27;;;;;;;;;6.00;4.00;;;;;;;;5071377;28;9198;-82
2024/03/13 04:29:55;;;;;;;;;5.00;5.00;;;;;;;;5104979;28;9082;-83
2024/03/13 04:32:22;;;;;;;;;6.00;6.00;;;;;;;;5077310;28;9147;-83
2024/03/13 04:34:50;;;;;;;;;8.33;7.00;;;;;;;;5097149;28;9074;-84
2024/03/13 04:37:17;;;;;;;;;6.33;5.33;;;;;;;;5087353;28;9263;-83
2024/03/13 04:39:45;;;;;;;;;2.67;2.33;;;;;;;;5076310;28;9217;-82
2024/03/13 04:42:12;;;;;;;;;4.00;4.00;;;;;;;;5074441;28;9114;-83
2024/03/13 04:44:40;;;;;;;;;6.33;6.33;;;;;;;;5100210;28;9183;-83
2024/03/13 04:47:08;;;;;;;;;8.67;5.67;;;;;;;;5071776;28;9176;-83
2024/03/13 04:49:35;;;;;;;;;6.00;6.00;;;;;;;;5068210;28;9115;-83
2024/03/13 04:52:03;;;;;;;;;7.67;4.33;;;;;;;;5077889;28;9312;-83
2024/03/13 04:54:31;;;;;;;;;7.00;5.67;;;;;;;;5068195;28;9188;-83
2024/03/13 04:57:00;;;;;;;;;7.00;5.33;;;;;;;;5065945;28;9037;-83
2024/03/13 04:59:27;;;;;;;;;8.00;6.33;;;;;;;;5077551;28;9193;-83
2024/03/13 05:01:55;;;;;;;;;5.00;5.00;;;;;;;;5073686;28;9163;-86
2024/03/13 05:04:23;;;;;;;;;8.00;6.33;;;;;;;;5068293;28;9162;-90
2024/03/13 05:06:52;;;;;;;;;10.67;9.00;;;;;;;;5077761;28;9077;-84
2024/03/13 05:09:19;;;;;;;;;7.00;7.00;;;;;;;;5078570;28;9269;-85
2024/03/13 05:11:47;;;;;;;;;8.33;7.00;;;;;;;;5087848;28;9200;-86
2024/03/13 05:14:15;;;;;;;;;6.67;6.67;;;;;;;;5072610;28;9177;-87
2024/03/13 05:16:45;;;;;;;;;7.33;7.33;;;;;;;;5072563;28;9108;-85
2024/03/13 05:19:13;;;;;;;;;7.33;7.00;;;;;;;;5073060;28;9181;-86
2024/03/13 05:21:40;;;;;;;;;5.67;4.67;;;;;;;;5072263;28;9088;-85
2024/03/13 05:24:08;;;;;;;;;18.00;14.00;;;;;;;;5072253;28;10041;-85
2024/03/13 05:26:36;;;;;;;;;5.33;5.33;;;;;;;;5072072;28;9318;-85
2024/03/13 05:29:04;;;;;;;;;6.67;5.00;;;;;;;;5071892;28;9121;-85
2024/03/13 05:31:31;;;;;;;;;7.67;7.67;;;;;;;;5070525;28;9195;-83
2024/03/13 05:34:00;;;;;;;;;12.00;7.33;;;;;;;;5072362;28;9317;-84
2024/03/13 05:36:28;;;;;;;;;7.00;6.67;;;;;;;;5072626;28;9225;-85
2024/03/13 05:38:56;;;;;;;;;12.00;8.67;;;;;;;;5071902;28;9250;-83
2024/03/13 05:41:23;;;;;;;;;6.33;6.33;;;;;;;;5071789;28;9484;-83
2024/03/13 05:43:53;;;;;;;;;6.67;6.67;;;;;;;;5071438;28;9296;-84
2024/03/13 05:46:22;;;;;;;;;6.33;6.33;;;;;;;;5072463;28;9265;-85
2024/03/13 05:48:49;;;;;;;;;6.00;6.00;;;;;;;;5072078;28;9350;-85
2024/03/13 05:51:17;;;;;;;;;7.00;7.00;;;;;;;;5071734;28;9110;-85
2024/03/13 05:53:45;;;;;;;;;7.00;7.00;;;;;;;;5071761;28;9411;-85
2024/03/13 05:56:14;;;;;;;;;7.00;7.00;;;;;;;;5072238;28;9266;-84
2024/03/13 05:58:42;;;;;;;;;6.67;6.00;;;;;;;;5072170;28;9246;-84
2024/03/13 06:01:14;;;;;;;;;6.00;5.00;;;;;;;;5070775;28;9232;-83
2024/03/13 06:03:41;;;;;;;;;7.67;5.67;;;;;;;;5072058;28;9273;-84
2024/03/13 06:06:11;;;;;;;;;8.00;8.00;;;;;;;;5071773;28;9029;-85
2024/03/13 06:08:38;;;;;;;;;9.67;7.00;;;;;;;;5072296;28;9263;-85
2024/03/13 06:11:06;;;;;;;;;6.33;6.33;;;;;;;;5075193;28;9882;-87
2024/03/13 06:13:34;;;;;;;;;8.00;8.00;;;;;;;;5090166;28;9193;-82
2024/03/13 06:16:09;;;;;;;;;5.67;5.00;;;;;;;;5067743;28;10102;-83
2024/03/13 06:18:36;;;;;;;;;10.00;7.00;;;;;;;;5103363;28;9397;-82
2024/03/13 06:21:04;;;;;;;;;7.33;5.00;;;;;;;;5071359;28;9342;-81
2024/03/13 06:23:32;;;;;;;;;10.00;7.00;;;;;;;;5067582;28;9321;-83
2024/03/13 06:25:59;;;;;;;;;5.67;5.67;;;;;;;;5103579;28;9180;-82
2024/03/13 06:31:12;;;;;;;;;6.33;5.00;;;;;;;;5074175;28;9013;-85
2024/03/13 06:33:40;;;;;;;;;5.00;5.00;;;;;;;;5073133;28;9095;-85
2024/03/13 06:36:07;;;;;;;;;6.00;6.00;;;;;;;;5074085;28;9170;-84
2024/03/13 06:38:35;;;;;;;;;7.00;7.00;;;;;;;;5058890;28;9200;-85
2024/03/13 06:41:02;;;;;;;;;7.00;4.00;;;;;;;;5073709;28;9172;-83
2024/03/13 06:43:31;;;;;;;;;8.67;7.00;;;;;;;;5075513;28;9196;-85
2024/03/13 06:45:59;;;;;;;;;6.00;6.00;;;;;;;;5075675;28;9066;-84
2024/03/13 06:48:26;;;;;;;;;5.33;4.67;;;;;;;;5075158;28;9292;-83
2024/03/13 06:50:56;;;;;;;;;5.00;5.00;;;;;;;;5072124;28;9176;-84
2024/03/13 06:53:30;;;;;;;;;7.67;5.00;;;;;;;;5071651;28;9017;-83
2024/03/13 06:55:59;;;;;;;;;7.67;7.67;;;;;;;;5071488;28;9263;-84
2024/03/13 06:58:27;;;;;;;;;7.00;5.33;;;;;;;;5071618;28;9336;-84
2024/03/13 07:00:55;;;;;;;;;4.33;4.33;;;;;;;;5103541;28;9219;-83
2024/03/13 07:03:24;;;;;;;;;4.00;4.00;;;;;;;;5075189;28;9293;-86
2024/03/13 07:05:57;;;;;;;;;3.67;3.67;;;;;;;;5117582;28;9113;-82
2024/03/13 07:08:25;;;;;;;;;2.00;2.00;;;;;;;;5093505;28;9061;-84
2024/03/13 07:10:51;;;;;;;;;4.67;4.67;;;;;;;;5073506;28;9208;-82
2024/03/13 07:13:19;;;;;;;;;4.33;4.33;;;;;;;;5071670;28;9170;-84
2024/03/13 07:15:46;;;;;;;;;5.67;5.67;;;;;;;;5071851;28;9158;-85
2024/03/13 07:18:14;;;;;;;;;5.00;3.00;;;;;;;;5071459;28;9104;-84
2024/03/13 07:20:46;;;;;;;;;5.00;5.00;;;;;;;;5072644;28;9034;-85
2024/03/13 07:23:14;;;;;;;;;5.00;5.00;;;;;;;;5078714;28;9012;-84
2024/03/13 07:25:41;;;;;;;;;4.67;3.67;;;;;;;;5072314;28;9033;-85
2024/03/13 07:28:09;;;;;;;;;6.33;6.33;;;;;;;;5106812;28;9094;-84
2024/03/13 07:30:36;;;;;;;;;5.25;5.25;;;;;;;;5074182;28;8855;-86
2024/03/13 07:33:08;;;;;;;;;5.33;5.33;;;;;;;;5073255;28;8860;-84
2024/03/13 07:35:35;;;;;;;;;7.25;6.00;;;;;;;;5077200;28;9081;-84
2024/03/13 07:38:03;;;;;;;;;5.00;4.00;;;;;;;;5107729;28;8864;-84
2024/03/13 07:40:32;;;;;;;;;4.25;4.25;;;;;;;;5074911;28;9018;-84
2024/03/13 07:42:59;;;;;;;;;6.33;5.67;;;;;;;;5070384;28;8874;-86
2024/03/13 07:45:27;;;;;;;;;7.67;6.00;;;;;;;;5101423;28;9227;-84
2024/03/13 07:47:55;;;;;;;;;4.00;4.00;;;;;;;;5105953;28;9021;-84
2024/03/13 07:50:23;;;;;;;;;5.00;5.00;;;;;;;;5074177;28;9024;-83
2024/03/13 07:52:51;;;;;;;;;5.75;5.25;;;;;;;;5062479;28;8860;-83
2024/03/13 07:55:18;;;;;;;;;8.00;5.75;;;;;;;;5073811;28;8848;-84
2024/03/13 07:57:46;;;;;;;;;4.67;4.67;;;;;;;;5073747;28;8899;-84
2024/03/13 08:00:16;;;;;;;;;4.25;4.25;;;;;;;;5072763;28;8960;-84
2024/03/13 08:02:44;;;;;;;;;5.00;5.00;;;;;;;;5066078;28;8856;-82
2024/03/13 08:05:11;;;;;;;;;7.00;7.00;;;;;;;;5072608;28;9104;-82
2024/03/13 08:07:44;;;;;;;;;4.50;4.50;;;;;;;;5072862;28;9029;-83
2024/03/13 08:10:13;;;;;;;;;5.00;5.00;;;;;;;;5073966;28;8856;-83
2024/03/13 08:12:47;;;;;;;;;4.75;4.75;;;;;;;;5106981;28;8947;-83
2024/03/13 08:15:15;;;;;;;;;5.75;4.00;;;;;;;;5069315;28;8903;-82
2024/03/13 08:17:45;;;;;;;;;4.00;4.00;;;;;;;;5100916;28;8852;-81
2024/03/13 08:20:14;;;;;;;;;8.75;5.00;;;;;;;;5073162;28;8886;-82
2024/03/13 08:22:43;;;;;;;;;4.25;4.00;;;;;;;;5107592;28;8852;-83
2024/03/13 08:25:16;;;;;;;;;3.75;3.75;;;;;;;;5094804;28;8840;-82
2024/03/13 08:27:43;;;;;;;;;4.00;4.00;;;;;;;;5076790;28;8844;-81
2024/03/13 08:30:11;;;;;;;;;5.00;5.00;;;;;;;;5075865;28;8978;-82
2024/03/13 08:32:39;;;;;;;;;6.00;4.75;;;;;;;;5108570;28;9050;-85
2024/03/13 08:35:09;;;;;;;;;6.00;6.00;;;;;;;;5075967;28;8867;-84
2024/03/13 08:37:35;;;;;;;;;3.50;3.00;;;;;;;;5075109;28;8943;-81
2024/03/13 08:40:06;;;;;;;;;7.00;4.00;;;;;;;;5072598;28;8871;-82
2024/03/13 08:42:35;;;;;;;;;5.50;4.00;;;;;;;;5071818;28;9112;-82
2024/03/13 08:45:03;;;;;;;;;4.75;4.75;;;;;;;;5072500;28;8868;-82
2024/03/13 08:47:30;;;;;;;;;6.00;4.25;;;;;;;;5072160;28;8845;-81
2024/03/13 08:49:58;;;;;;;;;7.75;7.00;;;;;;;;5072242;28;8968;-82
2024/03/13 08:52:25;;;;;;;;;5.50;4.00;;;;;;;;5071832;28;8836;-83
2024/03/13 08:54:54;;;;;;;;;4.00;4.00;;;;;;;;5068341;28;9029;-83
2024/03/13 08:57:21;;;;;;;;;1.50;1.25;;;;;;;;5104197;28;8840;-81
2024/03/13 08:59:48;;;;;;;;;4.00;3.00;;;;;;;;5071126;28;8871;-80
2024/03/13 09:02:16;;;;;;;;;5.00;5.00;;;;;;;;5070813;28;8785;-81
2024/03/13 09:04:45;;;;;;;;;2.50;2.50;;;;;;;;5071799;28;8868;-82
2024/03/13 09:07:12;;;;;;;;;3.25;3.25;;;;;;;;5072566;28;8844;-83
2024/03/13 09:09:40;;;;;;;;;3.00;3.00;;;;;;;;5072659;28;8860;-81
2024/03/13 09:12:08;;;;;;;;;3.00;3.00;;;;;;;;5108649;28;8870;-80
2024/03/13 09:14:36;;;;;;;;;3.75;3.25;;;;;;;;5072070;28;8851;-80
2024/03/13 09:17:06;;;;;;;;;4.00;3.00;;;;;;;;5106850;28;9712;-80
2024/03/13 09:19:37;;;;;;;;;2.75;2.75;;;;;;;;5071124;28;8858;-83
2024/03/13 09:22:07;;;;;;;;;3.75;2.75;;;;;;;;5073116;28;8844;-84
2024/03/13 09:24:35;;;;;;;;;5.00;4.25;;;;;;;;5072456;28;9631;-83
2024/03/13 09:27:02;;;;;;;;;5.50;3.00;;;;;;;;5067765;28;8965;-80
2024/03/13 09:29:31;;;;;;;;;2.00;2.00;;;;;;;;5073201;28;8947;-79
2024/03/13 09:31:59;;;;;;;;;5.50;4.00;;;;;;;;5091411;28;8792;-78
2024/03/13 09:34:26;;;;;;;;;3.25;3.25;;;;;;;;5077565;28;8967;-80
2024/03/13 09:36:53;;;;;;;;;2.00;2.00;;;;;;;;5070426;28;8856;-81
2024/03/13 09:39:21;;;;;;;;;2.75;1.75;;;;;;;;5070573;28;8967;-81
2024/03/13 09:41:51;;;;;;;;;3.00;3.00;;;;;;;;5070747;28;8892;-80
2024/03/13 09:44:18;;;;;;;;;4.00;3.00;;;;;;;;5070850;28;8852;-84
2024/03/13 09:46:45;;;;;;;;;3.75;3.75;;;;;;;;5071211;28;8856;-80
2024/03/13 09:49:13;;;;;;;;;1.75;1.75;;;;;;;;5070674;28;8936;-81
2024/03/13 09:51:42;;;;;;;;;2.50;2.50;;;;;;;;5070828;28;8848;-82
2024/03/13 09:54:11;;;;;;;;;2.00;2.00;;;;;;;;5070848;28;8863;-82
2024/03/13 09:56:40;;;;;;;;;5.00;2.00;;;;;;;;5070861;28;9627;-80
2024/03/13 09:59:09;;;;;;;;;3.00;3.00;;;;;;;;5067851;28;8851;-81
2024/03/13 10:01:37;;;;;;;;;4.75;2.75;;;;;;;;5104111;28;8873;-82
2024/03/13 10:04:10;;;;;;;;;2.00;2.00;;;;;;;;5089717;28;8867;-80
2024/03/13 10:06:39;;;;;;;;;2.00;2.00;;;;;;;;5071926;28;8825;-83
2024/03/13 10:09:12;;;;;;;;;2.00;2.00;;;;;;;;5071319;28;8856;-80
2024/03/13 10:11:42;;;;;;;;;2.00;2.00;;;;;;;;5072326;28;8848;-81
2024/03/13 10:14:09;;;;;;;;;2.25;1.00;;;;;;;;5072102;28;8871;-81
2024/03/13 10:16:37;;;;;;;;;2.00;2.00;;;;;;;;5071951;28;8954;-80
2024/03/13 10:19:05;;;;;;;;;1.25;1.25;;;;;;;;5072619;28;8878;-82
2024/03/13 10:21:33;;;;;;;;;0.00;0.00;;;;;;;;5072492;28;8867;-81
2024/03/13 10:24:00;;;;;;;;;1.00;1.00;;;;;;;;5072721;28;9003;-82
2024/03/13 10:26:29;;;;;;;;;0.00;0.00;;;;;;;;5072203;28;8845;-81
2024/03/13 10:28:56;;;;;;;;;0.00;0.00;;;;;;;;5071942;28;8845;-82
2024/03/13 10:31:24;;;;;;;;;1.00;1.00;;;;;;;;5070017;28;8908;-83
2024/03/13 10:33:54;;;;;;;;;4.00;2.25;;;;;;;;5069866;28;8868;-85
2024/03/13 10:36:21;;;;;;;;;3.00;3.00;;;;;;;;5070452;28;9603;-80
2024/03/13 10:38:49;;;;;;;;;1.75;1.75;;;;;;;;5069624;28;9651;-82
2024/03/13 10:41:17;;;;;;;;;0.75;0.75;;;;;;;;5069692;28;8848;-80
2024/03/13 10:43:46;;;;;;;;;1.00;1.00;;;;;;;;5071475;28;8849;-81
2024/03/13 10:46:13;;;;;;;;;0.00;0.00;;;;;;;;5070858;28;8848;-80
2024/03/13 10:48:41;;;;;;;;;1.00;1.00;;;;;;;;5070116;28;9002;-80
2024/03/13 10:51:11;;;;;;;;;0.00;0.00;;;;;;;;5066137;28;8881;-80
2024/03/13 10:53:41;;;;;;;;;0.00;0.00;;;;;;;;5098631;28;8856;-79
2024/03/13 10:56:14;;;;;;;;;0.00;0.00;;;;;;;;5072470;28;8952;-80
2024/03/13 10:58:43;;;;;;;;;1.00;0.00;;;;;;;;5057436;28;8872;-79
2024/03/13 11:01:13;;;;;;;;;0.00;0.00;;;;;;;;5073639;28;8911;-79
2024/03/13 11:03:41;;;;;;;;;0.00;0.00;;;;;;;;5074003;28;8863;-79
2024/03/13 11:06:09;;;;;;;;;0.00;0.00;;;;;;;;5073710;28;8860;-79
2024/03/13 11:08:36;;;;;;;;;0.00;0.00;;;;;;;;5072985;28;9634;-81
2024/03/13 11:11:04;;;;;;;;;1.25;0.25;;;;;;;;5073208;28;8882;-81
2024/03/13 11:13:31;;;;;;;;;0.25;0.25;;;;;;;;5073394;28;9611;-82
2024/03/13 11:15:59;;;;;;;;;0.00;0.00;;;;;;;;5073915;28;9004;-81
2024/03/13 11:18:27;;;;;;;;;0.75;0.75;;;;;;;;5073673;28;8870;-82
2024/03/13 11:20:56;;;;;;;;;0.50;0.50;;;;;;;;5074890;28;8868;-83
2024/03/13 11:23:25;;;;;;;;;1.00;1.00;;;;;;;;5069497;28;8912;-80
2024/03/13 11:25:54;;;;;;;;;0.00;0.00;;;;;;;;5102121;28;8848;-79
2024/03/13 11:28:22;;;;;;;;;0.75;0.00;;;;;;;;5063953;28;8909;-82
2024/03/13 11:30:52;;;;;;;;;0.00;0.00;;;;;;;;5074129;28;8889;-83
2024/03/13 11:33:21;;;;;;;;;0.00;0.00;;;;;;;;5074497;28;8860;-83
2024/03/13 11:35:48;;;;;;;;;1.00;1.00;;;;;;;;5076157;28;8930;-80
2024/03/13 11:38:16;;;;;;;;;0.50;0.50;;;;;;;;5079799;28;8856;-81
2024/03/13 11:40:44;;;;;;;;;1.00;1.00;;;;;;;;5071896;28;8969;-79
2024/03/13 11:43:11;;;;;;;;;0.50;0.50;;;;;;;;5073272;28;8844;-82
2024/03/13 11:45:43;;;;;;;;;0.75;0.75;;;;;;;;5073444;28;8844;-86
2024/03/13 11:48:15;;;;;;;;;0.00;0.00;;;;;;;;5073702;28;8860;-84
2024/03/13 11:51:07;;;;;;;;;0.00;0.00;;;;;;;;5072906;28;8863;-84
2024/03/13 11:53:35;;;;;;;;;0.25;0.25;;;;;;;;5090691;28;8848;-85
2024/03/13 11:56:06;;;;;;;;;1.00;1.00;;;;;;;;5073512;28;9010;-84
2024/03/13 11:58:35;;;;;;;;;0.00;0.00;;;;;;;;5074324;28;8890;-81
2024/03/13 12:01:03;;;;;;;;;1.75;1.75;;;;;;;;5072334;28;8807;-79
2024/03/13 12:03:35;;;;;;;;;1.00;1.00;;;;;;;;5082834;28;8844;-81
2024/03/13 12:06:03;;;;;;;;;2.25;1.00;;;;;;;;5082697;28;8900;-79
2024/03/13 12:08:32;;;;;;;;;1.00;1.00;;;;;;;;5081103;28;8957;-80
2024/03/13 12:11:05;;;;;;;;;0.75;0.75;;;;;;;;5076803;28;8846;-76
2024/03/13 12:13:33;;;;;;;;;0.00;0.00;;;;;;;;5083808;28;8881;-81
2024/03/13 12:16:00;;;;;;;;;0.75;0.75;;;;;;;;5112847;28;8878;-79
2024/03/13 12:18:30;;;;;;;;;1.00;1.00;;;;;;;;5078716;28;8867;-80
2024/03/13 12:20:58;;;;;;;;;1.00;1.00;;;;;;;;5076068;28;8871;-79
2024/03/13 12:23:31;;;;;;;;;0.00;0.00;;;;;;;;5074715;28;8878;-80
2024/03/13 12:26:01;;;;;;;;;1.00;1.00;;;;;;;;5074098;28;8860;-80
2024/03/13 12:28:30;;;;;;;;;0.75;0.75;;;;;;;;5074810;28;8867;-80
2024/03/13 12:30:58;;;;;;;;;1.00;1.00;;;;;;;;5075012;28;8803;-80
2024/03/13 12:33:26;;;;;;;;;1.00;1.00;;;;;;;;5074716;28;8886;-78
2024/03/13 12:36:01;;;;;;;;;1.00;1.00;;;;;;;;5072428;28;9611;-81
2024/03/13 12:38:39;;;;;;;;;4.00;1.00;;;;;;;;5071220;28;8977;-80
2024/03/13 12:41:15;;;;;;;;;0.00;0.00;;;;;;;;5073027;28;8859;-81
2024/03/13 12:46:39;;;;;;;;;0.00;0.00;;;;;;;;5095031;28;9611;-81
2024/03/13 12:49:12;;;;;;;;;0.00;0.00;;;;;;;;5107178;28;9692;-83
2024/03/13 12:51:41;;;;;;;;;0.00;0.00;;;;;;;;5069845;28;8840;-84
2024/03/13 12:57:04;;;;;;;;;0.00;0.00;;;;;;;;5070948;28;8860;-79
2024/03/13 12:59:45;;;;;;;;;0.00;0.00;;;;;;;;5075495;28;8844;-81
2024/03/13 13:02:19;;;;;;;;;0.00;0.00;;;;;;;;5104087;28;8820;-85
2024/03/13 13:04:46;;;;;;;;;0.00;0.00;;;;;;;;5107065;28;8903;-81
2024/03/13 13:07:14;;;;;;;;;0.00;0.00;;;;;;;;5104755;28;8879;-81
2024/03/13 13:09:43;;;;;;;;;0.00;0.00;;;;;;;;5105916;28;8840;-82
2024/03/13 13:12:16;;;;;;;;;0.00;0.00;;;;;;;;5085366;28;8973;-81
2024/03/13 13:14:43;;;;;;;;;0.00;0.00;;;;;;;;5065765;28;8843;-81
2024/03/13 13:17:11;;;;;;;;;0.00;0.00;;;;;;;;5070946;28;8863;-81
2024/03/13 13:19:38;;;;;;;;;0.50;0.50;;;;;;;;5069724;28;8953;-81
2024/03/13 13:22:09;;;;;;;;;0.50;0.50;;;;;;;;5070674;28;8852;-81
2024/03/13 13:24:36;;;;;;;;;0.00;0.00;;;;;;;;5070809;28;8840;-82
2024/03/13 13:27:08;;;;;;;;;0.00;0.00;;;;;;;;5070411;28;8856;-80
2024/03/13 13:29:35;;;;;;;;;1.00;1.00;;;;;;;;5071265;28;8848;-80
2024/03/13 13:32:06;;;;;;;;;0.00;0.00;;;;;;;;5070319;28;8821;-80
2024/03/13 13:34:35;;;;;;;;;1.00;1.00;;;;;;;;5072687;28;8896;-81
2024/03/13 13:37:03;;;;;;;;;1.00;1.00;;;;;;;;5072334;28;8933;-79
2024/03/13 13:39:31;;;;;;;;;1.00;1.00;;;;;;;;5071748;28;8856;-80
2024/03/13 13:42:00;;;;;;;;;2.00;1.00;;;;;;;;5074140;28;8857;-81
2024/03/13 13:44:28;;;;;;;;;1.00;1.00;;;;;;;;5072157;28;8991;-81
2024/03/13 13:46:56;;;;;;;;;1.00;1.00;;;;;;;;5072491;28;8907;-81
2024/03/13 13:49:25;;;;;;;;;2.25;1.50;;;;;;;;5073901;28;8914;-81
2024/03/13 13:51:53;;;;;;;;;1.00;1.00;;;;;;;;5075041;28;8863;-81
2024/03/13 13:54:20;;;;;;;;;2.00;2.00;;;;;;;;5068107;28;8866;-80
2024/03/13 13:56:48;;;;;;;;;1.75;1.75;;;;;;;;5111828;28;8882;-80
2024/03/13 13:59:17;;;;;;;;;1.75;1.75;;;;;;;;5072357;28;8860;-80
2024/03/13 14:01:44;;;;;;;;;1.50;1.50;;;;;;;;5101746;28;8940;-80
2024/03/13 14:04:12;;;;;;;;;1.50;1.50;;;;;;;;5106495;28;8939;-81
2024/03/13 14:06:47;;;;;;;;;3.00;3.00;;;;;;;;5112936;28;8994;-80
2024/03/13 14:09:16;;;;;;;;;0.75;0.75;;;;;;;;5097301;28;8880;-81
2024/03/13 14:11:43;;;;;;;;;1.00;1.00;;;;;;;;5076901;28;8851;-81
2024/03/13 14:14:11;;;;;;;;;1.00;1.00;;;;;;;;5062131;28;8883;-80
2024/03/13 14:16:41;;;;;;;;;2.00;1.00;;;;;;;;5070287;28;8867;-80
2024/03/13 14:19:12;;;;;;;;;1.00;1.00;;;;;;;;5071365;28;8937;-82
2024/03/13 14:21:49;;;;;;;;;1.00;1.00;;;;;;;;5074026;28;8860;-86
2024/03/13 14:24:25;;;;;;;;;1.00;1.00;;;;;;;;5075812;28;8967;-79
2024/03/13 14:26:56;;;;;;;;;2.00;1.00;;;;;;;;5072238;28;8845;-81
2024/03/13 14:29:25;;;;;;;;;1.00;1.00;;;;;;;;5102812;28;8868;-79
2024/03/13 14:31:56;;;;;;;;;1.00;1.00;;;;;;;;5098082;28;8795;-83
2024/03/13 14:34:25;;;;;;;;;1.50;1.50;;;;;;;;5074065;28;9249;-76
2024/03/13 14:39:59;;;;;;;;;;;;;;;;;;;;;
2024/03/13 14:42:34;;;;;;;;;2.00;2.00;;;;;;;;5049061;28;8841;-89
2024/03/13 14:45:05;;;;;;;;;1.75;1.75;;;;;;;;5113550;28;8859;-85
2024/03/13 14:47:38;;;;;;;;;2.00;2.00;;;;;;;;5079630;28;8890;-80
2024/03/13 14:50:07;;;;;;;;;1.75;1.75;;;;;;;;5101006;28;8875;-81
2024/03/13 14:52:41;;;;;;;;;1.25;1.25;;;;;;;;5075883;28;9007;-80
2024/03/13 14:55:08;;;;;;;;;2.00;2.00;;;;;;;;5075203;28;8918;-79
2024/03/13 15:00:25;;;;;;;;;3.00;3.00;;;;;;;;5042964;28;8961;-80
2024/03/13 15:03:06;;;;;;;;;2.00;2.00;;;;;;;;5070752;28;8839;-80
2024/03/13 15:05:53;;;;;;;;;2.00;2.00;;;;;;;;5103449;28;8844;-81
2024/03/13 15:08:21;;;;;;;;;2.00;2.00;;;;;;;;5117132;27;8860;-80
2024/03/13 15:11:02;;;;;;;;;2.00;2.00;;;;;;;;5108172;28;8860;-82
2024/03/13 15:16:14;;;;;;;;;4.00;2.00;;;;;;;;5068489;28;8882;-80
2024/03/13 15:18:45;;;;;;;;;1.00;1.00;;;;;;;;5106810;28;8856;-81
2024/03/13 15:21:13;;;;;;;;;2.50;2.50;;;;;;;;5073881;28;8856;-81
2024/03/13 15:24:04;;;;;;;;;1.50;1.50;;;;;;;;5074052;28;9626;-80
2024/03/13 15:26:33;;;;;;;;;1.00;1.00;;;;;;;;5090076;28;8913;-80
2024/03/13 15:29:05;;;;;;;;;1.25;1.25;;;;;;;;5073665;28;8897;-81
2024/03/13 15:31:34;;;;;;;;;3.00;3.00;;;;;;;;5079760;28;8813;-81
2024/03/13 15:34:03;;;;;;;;;2.75;2.75;;;;;;;;5074053;28;8948;-80
2024/03/13 15:36:30;;;;;;;;;2.75;2.75;;;;;;;;5079839;28;8860;-80
2024/03/13 15:39:02;;;;;;;;;3.25;3.25;;;;;;;;5073137;28;8856;-79
2024/03/13 15:41:30;;;;;;;;;2.25;2.25;;;;;;;;5075313;28;8860;-80